sensor_id;sensor_type;location;lat;lon;timestamp;pressure;altitude;pressure_sealevel;temperature;humidity
68474;BME280;55461;52.066;5.194;2023-01-28T00:01:04;102970.0;;;3.48;78.72
68474;BME280;55461;52.066;5.194;2023-01-28T00:02:41;102969.0;;;3.15;79.97
68474;BME280;55461;52.066;5.194;2023-01-28T00:04:17;102975.0;;;3.4;78.94
68474;BME280;55461;52.066;5.194;2023-01-28T00:06:01;102977.0;;;3.11;80.27
68474;BME280;55461;52.066;5.194;2023-01-28T00:09:14;102982.0;;;3.01;80.94
68474;BME280;55461;52.066;5.194;2023-01-28T00:10:50;102978.0;;;3.02;80.42
68474;BME280;55461;52.066;5.194;2023-01-28T00:12:26;102983.0;;;2.97;80.58
68474;BME280;55461;52.066;5.194;2023-01-28T00:14:04;102983.0;;;3.01;80.3
68474;BME280;55461;52.066;5.194;2023-01-28T00:17:17;102984.99999999999;;;3.14;80.16
68474;BME280;55461;52.066;5.194;2023-01-28T00:18:53;102990.00000000001;;;3.36;79.33
68474;BME280;55461;52.066;5.194;2023-01-28T00:20:30;102988.00000000001;;;3.15;80.37
68474;BME280;55461;52.066;5.194;2023-01-28T00:23:47;102988.00000000001;;;3.24;79.77
68474;BME280;55461;52.066;5.194;2023-01-28T00:25:26;102991.00000000001;;;2.93;79.91
68474;BME280;55461;52.066;5.194;2023-01-28T00:27:02;102989.00000000001;;;3.31;79.37
68474;BME280;55461;52.066;5.194;2023-01-28T00:30:16;102988.00000000001;;;3.01;79.7
68474;BME280;55461;52.066;5.194;2023-01-28T00:31:53;102991.00000000001;;;2.85;80.62
68474;BME280;55461;52.066;5.194;2023-01-28T00:33:30;102983.99999999999;;;2.96;80.56
68474;BME280;55461;52.066;5.194;2023-01-28T00:35:08;102984.99999999999;;;2.91;80.45
68474;BME280;55461;52.066;5.194;2023-01-28T00:38:20;102990.00000000001;;;3.31;78.83
68474;BME280;55461;52.066;5.194;2023-01-28T00:39:57;102993.0;;;3.32;78.33
68474;BME280;55461;52.066;5.194;2023-01-28T00:41:33;102988.00000000001;;;3.37;78.0
68474;BME280;55461;52.066;5.194;2023-01-28T00:44:45;102983.0;;;3.14;78.31
68474;BME280;55461;52.066;5.194;2023-01-28T00:46:22;102988.00000000001;;;3.35;78.16
68474;BME280;55461;52.066;5.194;2023-01-28T00:47:59;102986.99999999999;;;3.18;78.42
68474;BME280;55461;52.066;5.194;2023-01-28T00:51:14;102983.0;;;2.97;77.92
68474;BME280;55461;52.066;5.194;2023-01-28T00:52:51;102984.99999999999;;;3.13;77.86
68474;BME280;55461;52.066;5.194;2023-01-28T00:54:27;102984.99999999999;;;3.27;77.33
68474;BME280;55461;52.066;5.194;2023-01-28T00:56:05;102989.00000000001;;;3.18;77.66
68474;BME280;55461;52.066;5.194;2023-01-28T00:59:19;102986.99999999999;;;3.24;77.19
68474;BME280;55461;52.066;5.194;2023-01-28T01:00:55;102984.99999999999;;;3.18;77.33
68474;BME280;55461;52.066;5.194;2023-01-28T01:02:31;102984.99999999999;;;3.14;77.19
68474;BME280;55461;52.066;5.194;2023-01-28T01:05:44;102981.0;;;3.26;76.44
68474;BME280;55461;52.066;5.194;2023-01-28T01:07:22;102976.0;;;3.22;77.27
68474;BME280;55461;52.066;5.194;2023-01-28T01:08:59;102974.0;;;3.3;77.91
68474;BME280;55461;52.066;5.194;2023-01-28T01:10:37;102975.0;;;3.25;77.19
68474;BME280;55461;52.066;5.194;2023-01-28T01:13:51;102973.0;;;3.32;77.22
68474;BME280;55461;52.066;5.194;2023-01-28T01:15:28;102968.0;;;3.3;76.88
68474;BME280;55461;52.066;5.194;2023-01-28T01:17:04;102970.0;;;3.29;76.66
68474;BME280;55461;52.066;5.194;2023-01-28T01:20:20;102979.0;;;3.23;77.16
68474;BME280;55461;52.066;5.194;2023-01-28T01:21:57;102978.0;;;3.1;78.3
68474;BME280;55461;52.066;5.194;2023-01-28T01:23:34;102980.0;;;3.21;76.69
68474;BME280;55461;52.066;5.194;2023-01-28T01:25:11;102977.0;;;3.11;76.81
68474;BME280;55461;52.066;5.194;2023-01-28T01:28:25;102979.0;;;3.35;76.22
68474;BME280;55461;52.066;5.194;2023-01-28T01:30:01;102978.0;;;3.41;75.61
68474;BME280;55461;52.066;5.194;2023-01-28T01:31:38;102976.0;;;3.25;76.59
68474;BME280;55461;52.066;5.194;2023-01-28T01:34:51;102975.0;;;3.37;76.08
68474;BME280;55461;52.066;5.194;2023-01-28T01:36:28;102973.0;;;3.37;75.97
68474;BME280;55461;52.066;5.194;2023-01-28T01:38:05;102976.0;;;3.38;75.7
68474;BME280;55461;52.066;5.194;2023-01-28T01:41:23;102974.0;;;3.57;75.23
68474;BME280;55461;52.066;5.194;2023-01-28T01:43:00;102978.0;;;3.58;74.83
68474;BME280;55461;52.066;5.194;2023-01-28T01:44:55;102986.99999999999;;;3.58;74.86
68474;BME280;55461;52.066;5.194;2023-01-28T01:46:36;102981.0;;;3.46;74.91
68474;BME280;55461;52.066;5.194;2023-01-28T01:48:20;102981.0;;;3.54;74.58
68474;BME280;55461;52.066;5.194;2023-01-28T01:51:42;102982.0;;;3.61;74.03
68474;BME280;55461;52.066;5.194;2023-01-28T01:53:23;102992.0;;;3.64;74.27
68474;BME280;55461;52.066;5.194;2023-01-28T01:55:04;102995.0;;;3.51;75.05
68474;BME280;55461;52.066;5.194;2023-01-28T01:56:46;102995.0;;;3.54;74.69
68474;BME280;55461;52.066;5.194;2023-01-28T02:00:10;102996.0;;;3.54;74.62
68474;BME280;55461;52.066;5.194;2023-01-28T02:01:46;102995.0;;;3.47;75.69
68474;BME280;55461;52.066;5.194;2023-01-28T02:03:27;102991.00000000001;;;3.45;75.0
68474;BME280;55461;52.066;5.194;2023-01-28T02:05:08;102991.00000000001;;;3.37;75.72
68474;BME280;55461;52.066;5.194;2023-01-28T02:08:22;102995.0;;;3.28;76.19
68474;BME280;55461;52.066;5.194;2023-01-28T02:09:58;102992.0;;;3.31;75.59
68474;BME280;55461;52.066;5.194;2023-01-28T02:11:35;102986.99999999999;;;3.12;76.73
68474;BME280;55461;52.066;5.194;2023-01-28T02:21:30;102986.99999999999;;;3.22;76.61
68474;BME280;55461;52.066;5.194;2023-01-28T02:22:25;102989.00000000001;;;3.22;76.23
68474;BME280;55461;52.066;5.194;2023-01-28T02:24:22;102992.0;;;3.21;76.41
68474;BME280;55461;52.066;5.194;2023-01-28T02:27:18;102993.0;;;3.32;76.33
68474;BME280;55461;52.066;5.194;2023-01-28T02:29:08;102992.0;;;3.53;75.81
68474;BME280;55461;52.066;5.194;2023-01-28T02:30:53;102997.0;;;3.51;75.52
68474;BME280;55461;52.066;5.194;2023-01-28T02:32:41;103000.0;;;3.47;75.75
68474;BME280;55461;52.066;5.194;2023-01-28T02:34:30;103002.0;;;3.71;75.09
68474;BME280;55461;52.066;5.194;2023-01-28T02:38:04;103006.0;;;3.46;75.88
68474;BME280;55461;52.066;5.194;2023-01-28T02:39:47;103004.0;;;3.57;75.62
68474;BME280;55461;52.066;5.194;2023-01-28T02:41:32;103006.0;;;3.32;75.86
68474;BME280;55461;52.066;5.194;2023-01-28T02:43:13;103004.0;;;3.29;76.05
68474;BME280;55461;52.066;5.194;2023-01-28T02:44:50;103005.0;;;3.33;76.27
68474;BME280;55461;52.066;5.194;2023-01-28T02:49:39;103000.0;;;3.7;74.88
68474;BME280;55461;52.066;5.194;2023-01-28T02:51:26;103003.0;;;3.57;75.41
68474;BME280;55461;52.066;5.194;2023-01-28T02:53:43;103008.0;;;3.45;76.03
68474;BME280;55461;52.066;5.194;2023-01-28T02:55:52;103003.0;;;3.36;75.75
68474;BME280;55461;52.066;5.194;2023-01-28T02:57:37;103006.0;;;3.39;75.66
68474;BME280;55461;52.066;5.194;2023-01-28T02:59:35;103004.0;;;3.6;74.83
68474;BME280;55461;52.066;5.194;2023-01-28T03:03:08;102998.0;;;3.71;74.66
68474;BME280;55461;52.066;5.194;2023-01-28T03:04:56;102992.0;;;3.51;75.14
68474;BME280;55461;52.066;5.194;2023-01-28T03:06:40;102983.0;;;3.57;75.66
68474;BME280;55461;52.066;5.194;2023-01-28T03:09:26;102984.99999999999;;;3.43;76.09
68474;BME280;55461;52.066;5.194;2023-01-28T03:36:55;102999.0;;;3.16;77.5
68474;BME280;55461;52.066;5.194;2023-01-28T03:38:41;103001.0;;;3.32;77.5
68474;BME280;55461;52.066;5.194;2023-01-28T03:40:18;103001.0;;;3.24;77.16
68474;BME280;55461;52.066;5.194;2023-01-28T03:41:57;103002.0;;;3.32;76.84
68474;BME280;55461;52.066;5.194;2023-01-28T03:43:35;102992.0;;;3.35;76.97
68474;BME280;55461;52.066;5.194;2023-01-28T03:46:50;102995.0;;;3.16;76.95
68474;BME280;55461;52.066;5.194;2023-01-28T03:48:27;102995.0;;;3.05;76.61
68474;BME280;55461;52.066;5.194;2023-01-28T03:50:06;102999.0;;;2.98;76.84
68474;BME280;55461;52.066;5.194;2023-01-28T03:51:45;102996.0;;;3.29;76.3
68474;BME280;55461;52.066;5.194;2023-01-28T03:54:57;102996.0;;;3.11;76.45
68474;BME280;55461;52.066;5.194;2023-01-28T03:56:36;103001.0;;;2.96;76.09
68474;BME280;55461;52.066;5.194;2023-01-28T03:58:13;102997.0;;;2.97;75.95
68474;BME280;55461;52.066;5.194;2023-01-28T04:01:29;103003.0;;;2.98;76.0
68474;BME280;55461;52.066;5.194;2023-01-28T04:03:16;103000.0;;;3.15;75.03
68474;BME280;55461;52.066;5.194;2023-01-28T04:04:53;103003.0;;;3.35;73.74
68474;BME280;55461;52.066;5.194;2023-01-28T04:06:30;103005.0;;;3.26;73.62
68474;BME280;55461;52.066;5.194;2023-01-28T04:09:42;103003.0;;;3.42;73.84
68474;BME280;55461;52.066;5.194;2023-01-28T04:11:20;103000.0;;;3.35;74.19
68474;BME280;55461;52.066;5.194;2023-01-28T04:12:56;103002.0;;;3.24;74.2
68474;BME280;55461;52.066;5.194;2023-01-28T04:16:09;103008.0;;;3.48;73.44
68474;BME280;55461;52.066;5.194;2023-01-28T04:17:46;103011.99999999999;;;3.37;73.78
68474;BME280;55461;52.066;5.194;2023-01-28T04:19:24;103020.0;;;3.04;73.91
68474;BME280;55461;52.066;5.194;2023-01-28T04:21:00;103020.0;;;2.9;74.16
68474;BME280;55461;52.066;5.194;2023-01-28T04:24:12;103025.0;;;2.96;74.31
68474;BME280;55461;52.066;5.194;2023-01-28T04:25:49;103023.0;;;3.03;73.95
68474;BME280;55461;52.066;5.194;2023-01-28T04:27:26;103024.0;;;3.18;73.81
68474;BME280;55461;52.066;5.194;2023-01-28T04:30:38;103026.0;;;3.29;73.42
68474;BME280;55461;52.066;5.194;2023-01-28T04:32:14;103031.0;;;2.78;74.28
68474;BME280;55461;52.066;5.194;2023-01-28T04:33:51;103038.00000000001;;;2.7;74.81
68474;BME280;55461;52.066;5.194;2023-01-28T04:37:03;103039.00000000001;;;2.86;74.86
68474;BME280;55461;52.066;5.194;2023-01-28T04:38:39;103038.00000000001;;;3.02;73.8
68474;BME280;55461;52.066;5.194;2023-01-28T04:40:16;103046.0;;;2.84;74.08
68474;BME280;55461;52.066;5.194;2023-01-28T04:41:52;103041.00000000001;;;2.73;75.05
68474;BME280;55461;52.066;5.194;2023-01-28T04:45:06;103043.0;;;2.92;74.11
68474;BME280;55461;52.066;5.194;2023-01-28T04:46:43;103042.0;;;3.1;73.55
68474;BME280;55461;52.066;5.194;2023-01-28T04:48:19;103038.00000000001;;;3.02;73.56
68474;BME280;55461;52.066;5.194;2023-01-28T04:51:31;103030.0;;;3.05;73.44
68474;BME280;55461;52.066;5.194;2023-01-28T04:53:08;103022.0;;;3.09;72.72
68474;BME280;55461;52.066;5.194;2023-01-28T04:54:45;103027.0;;;2.96;72.91
68474;BME280;55461;52.066;5.194;2023-01-28T04:57:58;103025.0;;;3.14;72.55
68474;BME280;55461;52.066;5.194;2023-01-28T04:59:34;103026.0;;;2.95;72.25
68474;BME280;55461;52.066;5.194;2023-01-28T05:01:10;103020.0;;;2.68;72.52
68474;BME280;55461;52.066;5.194;2023-01-28T05:02:46;103016.00000000001;;;2.91;71.52
68474;BME280;55461;52.066;5.194;2023-01-28T05:05:58;103017.0;;;2.9;72.05
68474;BME280;55461;52.066;5.194;2023-01-28T05:07:35;103022.0;;;2.5;73.16
68474;BME280;55461;52.066;5.194;2023-01-28T05:09:12;103019.0;;;2.88;72.72
68474;BME280;55461;52.066;5.194;2023-01-28T05:12:24;103020.0;;;2.58;73.05
68474;BME280;55461;52.066;5.194;2023-01-28T05:14:01;103022.0;;;2.57;73.94
68474;BME280;55461;52.066;5.194;2023-01-28T05:15:37;103021.0;;;2.64;74.09
68474;BME280;55461;52.066;5.194;2023-01-28T05:18:50;103017.0;;;2.48;73.72
68474;BME280;55461;52.066;5.194;2023-01-28T05:20:26;103017.0;;;2.72;72.63
68474;BME280;55461;52.066;5.194;2023-01-28T05:22:02;103019.0;;;2.66;72.83
68474;BME280;55461;52.066;5.194;2023-01-28T05:25:14;103017.0;;;2.65;72.66
68474;BME280;55461;52.066;5.194;2023-01-28T05:26:50;103019.0;;;2.54;73.16
68474;BME280;55461;52.066;5.194;2023-01-28T05:28:27;103023.0;;;2.82;72.0
68474;BME280;55461;52.066;5.194;2023-01-28T05:30:07;103025.0;;;3.01;71.83
68474;BME280;55461;52.066;5.194;2023-01-28T05:33:19;103025.0;;;2.99;71.44
68474;BME280;55461;52.066;5.194;2023-01-28T05:34:55;103024.0;;;2.84;71.16
68474;BME280;55461;52.066;5.194;2023-01-28T05:36:31;103022.0;;;2.86;71.63
68474;BME280;55461;52.066;5.194;2023-01-28T05:39:43;103024.0;;;2.91;71.5
68474;BME280;55461;52.066;5.194;2023-01-28T05:41:20;103024.0;;;2.85;72.8
68474;BME280;55461;52.066;5.194;2023-01-28T05:42:56;103021.0;;;2.89;72.45
68474;BME280;55461;52.066;5.194;2023-01-28T05:46:08;103020.0;;;2.83;72.31
68474;BME280;55461;52.066;5.194;2023-01-28T05:47:44;103017.0;;;2.76;72.63
68474;BME280;55461;52.066;5.194;2023-01-28T05:49:21;103020.0;;;2.91;72.25
68474;BME280;55461;52.066;5.194;2023-01-28T05:50:58;103021.0;;;3.06;71.33
68474;BME280;55461;52.066;5.194;2023-01-28T05:54:11;103019.0;;;2.78;71.61
68474;BME280;55461;52.066;5.194;2023-01-28T05:55:47;103017.0;;;2.8;72.36
68474;BME280;55461;52.066;5.194;2023-01-28T05:57:24;103018.0;;;2.98;72.13
68474;BME280;55461;52.066;5.194;2023-01-28T06:00:37;103019.0;;;2.91;71.73
68474;BME280;55461;52.066;5.194;2023-01-28T06:02:13;103020.0;;;3.0;71.06
68474;BME280;55461;52.066;5.194;2023-01-28T06:03:50;103021.0;;;2.98;71.44
68474;BME280;55461;52.066;5.194;2023-01-28T06:07:02;103021.0;;;2.87;71.44
68474;BME280;55461;52.066;5.194;2023-01-28T06:08:38;103023.0;;;2.99;71.19
68474;BME280;55461;52.066;5.194;2023-01-28T06:10:17;103026.0;;;3.1;70.33
68474;BME280;55461;52.066;5.194;2023-01-28T06:11:53;103028.0;;;2.82;71.24
68474;BME280;55461;52.066;5.194;2023-01-28T06:15:06;103022.0;;;2.94;71.19
68474;BME280;55461;52.066;5.194;2023-01-28T06:16:43;103023.0;;;2.86;71.66
68474;BME280;55461;52.066;5.194;2023-01-28T06:18:19;103031.0;;;2.59;72.11
68474;BME280;55461;52.066;5.194;2023-01-28T06:21:31;103029.0;;;2.65;72.31
68474;BME280;55461;52.066;5.194;2023-01-28T06:23:09;103026.0;;;2.68;71.58
68474;BME280;55461;52.066;5.194;2023-01-28T06:24:45;103022.0;;;2.46;71.92
68474;BME280;55461;52.066;5.194;2023-01-28T06:27:58;103022.0;;;2.52;72.66
68474;BME280;55461;52.066;5.194;2023-01-28T06:29:34;103027.0;;;2.71;71.83
68474;BME280;55461;52.066;5.194;2023-01-28T06:31:11;103024.0;;;2.77;71.73
68474;BME280;55461;52.066;5.194;2023-01-28T06:32:53;103025.0;;;2.76;71.92
68474;BME280;55461;52.066;5.194;2023-01-28T06:36:06;103028.0;;;2.82;71.49
68474;BME280;55461;52.066;5.194;2023-01-28T06:37:44;103029.0;;;2.62;72.36
68474;BME280;55461;52.066;5.194;2023-01-28T06:39:20;103027.0;;;2.86;72.17
68474;BME280;55461;52.066;5.194;2023-01-28T06:42:34;103034.99999999999;;;2.89;71.74
68474;BME280;55461;52.066;5.194;2023-01-28T06:44:10;103042.0;;;2.73;72.44
68474;BME280;55461;52.066;5.194;2023-01-28T06:45:47;103044.0;;;2.96;72.19
68474;BME280;55461;52.066;5.194;2023-01-28T06:47:23;103045.0;;;2.73;72.2
68474;BME280;55461;52.066;5.194;2023-01-28T06:50:35;103045.0;;;2.63;73.05
68474;BME280;55461;52.066;5.194;2023-01-28T06:52:11;103048.0;;;2.72;71.88
68474;BME280;55461;52.066;5.194;2023-01-28T06:53:47;103048.0;;;2.67;72.05
68474;BME280;55461;52.066;5.194;2023-01-28T06:57:00;103050.0;;;2.73;72.09
68474;BME280;55461;52.066;5.194;2023-01-28T06:58:36;103055.0;;;2.86;71.63
68474;BME280;55461;52.066;5.194;2023-01-28T07:00:15;103057.0;;;2.94;71.23
68474;BME280;55461;52.066;5.194;2023-01-28T07:03:27;103057.0;;;2.85;71.38
68474;BME280;55461;52.066;5.194;2023-01-28T07:05:04;103057.0;;;2.67;72.02
68474;BME280;55461;52.066;5.194;2023-01-28T07:06:40;103050.0;;;2.9;71.73
68474;BME280;55461;52.066;5.194;2023-01-28T07:08:17;103051.0;;;2.68;71.7
68474;BME280;55461;52.066;5.194;2023-01-28T07:11:29;103057.0;;;2.79;72.36
68474;BME280;55461;52.066;5.194;2023-01-28T07:13:05;103056.0;;;2.64;72.44
68474;BME280;55461;52.066;5.194;2023-01-28T07:14:41;103052.0;;;2.65;72.78
68474;BME280;55461;52.066;5.194;2023-01-28T07:17:53;103050.0;;;2.72;72.22
68474;BME280;55461;52.066;5.194;2023-01-28T07:19:30;103054.0;;;2.86;71.97
68474;BME280;55461;52.066;5.194;2023-01-28T07:21:07;103053.0;;;3.05;71.3
68474;BME280;55461;52.066;5.194;2023-01-28T07:24:20;103063.00000000001;;;3.18;70.88
68474;BME280;55461;52.066;5.194;2023-01-28T07:26:00;103070.0;;;2.9;71.67
68474;BME280;55461;52.066;5.194;2023-01-28T07:27:36;103065.00000000001;;;2.97;71.37
68474;BME280;55461;52.066;5.194;2023-01-28T07:29:12;103067.0;;;3.11;71.34
68474;BME280;55461;52.066;5.194;2023-01-28T07:32:26;103067.0;;;3.01;72.28
68474;BME280;55461;52.066;5.194;2023-01-28T07:34:02;103068.0;;;2.95;72.33
68474;BME280;55461;52.066;5.194;2023-01-28T07:35:39;103070.0;;;2.82;72.91
68474;BME280;55461;52.066;5.194;2023-01-28T07:38:51;103077.0;;;2.84;72.44
68474;BME280;55461;52.066;5.194;2023-01-28T07:40:27;103080.0;;;2.83;72.52
68474;BME280;55461;52.066;5.194;2023-01-28T07:42:04;103080.0;;;2.96;72.11
68474;BME280;55461;52.066;5.194;2023-01-28T07:45:16;103077.0;;;2.97;72.02
68474;BME280;55461;52.066;5.194;2023-01-28T07:46:53;103076.0;;;2.83;72.72
68474;BME280;55461;52.066;5.194;2023-01-28T07:48:30;103083.0;;;2.96;72.59
68474;BME280;55461;52.066;5.194;2023-01-28T07:50:08;103082.0;;;2.99;72.47
68474;BME280;55461;52.066;5.194;2023-01-28T07:53:22;103080.0;;;3.03;71.72
68474;BME280;55461;52.066;5.194;2023-01-28T07:54:58;103088.00000000001;;;2.52;73.12
68474;BME280;55461;52.066;5.194;2023-01-28T07:56:34;103092.0;;;2.75;72.66
68474;BME280;55461;52.066;5.194;2023-01-28T07:59:48;103093.0;;;2.85;72.94
68474;BME280;55461;52.066;5.194;2023-01-28T08:01:24;103088.00000000001;;;2.91;72.91
68474;BME280;55461;52.066;5.194;2023-01-28T08:03:02;103090.00000000001;;;2.7;72.91
68474;BME280;55461;52.066;5.194;2023-01-28T08:06:17;103092.0;;;2.68;73.33
68474;BME280;55461;52.066;5.194;2023-01-28T08:07:53;103092.0;;;2.9;72.7
68474;BME280;55461;52.066;5.194;2023-01-28T08:09:29;103097.0;;;2.87;73.23
68474;BME280;55461;52.066;5.194;2023-01-28T08:11:06;103095.0;;;2.69;72.97
68474;BME280;55461;52.066;5.194;2023-01-28T08:14:26;103092.0;;;2.81;72.87
68474;BME280;55461;52.066;5.194;2023-01-28T08:16:04;103096.0;;;2.77;73.06
68474;BME280;55461;52.066;5.194;2023-01-28T08:17:41;103094.0;;;2.89;73.12
68474;BME280;55461;52.066;5.194;2023-01-28T08:20:54;103100.0;;;2.91;72.64
68474;BME280;55461;52.066;5.194;2023-01-28T08:22:31;103100.0;;;2.85;72.94
68474;BME280;55461;52.066;5.194;2023-01-28T08:24:07;103109.99999999999;;;2.85;73.12
68474;BME280;55461;52.066;5.194;2023-01-28T08:25:44;103111.99999999999;;;2.7;72.83
68474;BME280;55461;52.066;5.194;2023-01-28T08:28:57;103108.0;;;2.71;72.75
68474;BME280;55461;52.066;5.194;2023-01-28T08:30:33;103115.00000000001;;;2.37;71.89
68474;BME280;55461;52.066;5.194;2023-01-28T08:32:10;103107.0;;;2.5;71.27
68474;BME280;55461;52.066;5.194;2023-01-28T08:35:22;103114.00000000001;;;2.58;71.73
68474;BME280;55461;52.066;5.194;2023-01-28T08:36:58;103108.99999999999;;;2.65;71.47
68474;BME280;55461;52.066;5.194;2023-01-28T08:38:34;103117.0;;;2.69;71.44
68474;BME280;55461;52.066;5.194;2023-01-28T08:41:48;103116.00000000001;;;2.75;71.38
68474;BME280;55461;52.066;5.194;2023-01-28T08:43:24;103117.0;;;2.92;70.83
68474;BME280;55461;52.066;5.194;2023-01-28T08:45:01;103118.0;;;2.89;70.33
68474;BME280;55461;52.066;5.194;2023-01-28T08:46:37;103126.0;;;2.71;70.8
68474;BME280;55461;52.066;5.194;2023-01-28T08:49:52;103133.0;;;2.71;70.58
68474;BME280;55461;52.066;5.194;2023-01-28T08:51:28;103131.0;;;2.75;71.03
68474;BME280;55461;52.066;5.194;2023-01-28T08:53:08;103133.99999999999;;;2.72;71.44
68474;BME280;55461;52.066;5.194;2023-01-28T08:56:22;103144.0;;;2.68;70.8
68474;BME280;55461;52.066;5.194;2023-01-28T08:58:01;103145.0;;;2.81;70.08
68474;BME280;55461;52.066;5.194;2023-01-28T08:59:44;103145.0;;;2.83;69.66
68474;BME280;55461;52.066;5.194;2023-01-28T09:01:20;103141.00000000001;;;2.81;70.8
68474;BME280;55461;52.066;5.194;2023-01-28T09:04:32;103138.00000000001;;;2.63;69.87
68474;BME280;55461;52.066;5.194;2023-01-28T09:06:08;103141.00000000001;;;2.78;70.61
68474;BME280;55461;52.066;5.194;2023-01-28T09:07:45;103151.0;;;2.78;70.69
68474;BME280;55461;52.066;5.194;2023-01-28T09:10:58;103146.0;;;3.07;69.94
68474;BME280;55461;52.066;5.194;2023-01-28T09:12:35;103136.99999999999;;;2.86;70.89
68474;BME280;55461;52.066;5.194;2023-01-28T09:14:12;103133.99999999999;;;2.68;70.34
68474;BME280;55461;52.066;5.194;2023-01-28T09:17:26;103138.00000000001;;;2.7;71.63
68474;BME280;55461;52.066;5.194;2023-01-28T09:19:02;103134.99999999999;;;2.71;72.64
68474;BME280;55461;52.066;5.194;2023-01-28T09:20:38;103144.0;;;2.68;73.02
68474;BME280;55461;52.066;5.194;2023-01-28T09:22:16;103147.0;;;2.67;72.89
68474;BME280;55461;52.066;5.194;2023-01-28T09:25:31;103142.0;;;2.68;73.25
68474;BME280;55461;52.066;5.194;2023-01-28T09:27:08;103149.0;;;2.67;72.73
68474;BME280;55461;52.066;5.194;2023-01-28T09:28:46;103155.0;;;2.67;72.86
68474;BME280;55461;52.066;5.194;2023-01-28T09:32:00;103146.0;;;2.71;73.95
68474;BME280;55461;52.066;5.194;2023-01-28T09:33:38;103153.0;;;2.7;73.83
68474;BME280;55461;52.066;5.194;2023-01-28T09:35:17;103158.99999999999;;;2.86;71.69
68474;BME280;55461;52.066;5.194;2023-01-28T09:36:53;103154.0;;;2.61;71.81
68474;BME280;55461;52.066;5.194;2023-01-28T09:40:11;103152.0;;;2.64;71.52
68474;BME280;55461;52.066;5.194;2023-01-28T09:42:01;103159.99999999999;;;2.82;71.33
68474;BME280;55461;52.066;5.194;2023-01-28T09:44:02;103161.99999999999;;;2.93;69.8
68474;BME280;55461;52.066;5.194;2023-01-28T09:45:43;103167.0;;;2.82;69.5
68474;BME280;55461;52.066;5.194;2023-01-28T09:47:25;103166.00000000001;;;2.72;70.69
68474;BME280;55461;52.066;5.194;2023-01-28T09:50:53;103155.0;;;2.95;70.58
68474;BME280;55461;52.066;5.194;2023-01-28T09:52:33;103155.0;;;2.92;70.14
68474;BME280;55461;52.066;5.194;2023-01-28T09:54:22;103158.0;;;3.04;71.49
68474;BME280;55461;52.066;5.194;2023-01-28T09:56:04;103161.99999999999;;;3.16;70.17
68474;BME280;55461;52.066;5.194;2023-01-28T09:59:24;103161.99999999999;;;3.19;70.92
68474;BME280;55461;52.066;5.194;2023-01-28T10:01:09;103165.00000000001;;;3.29;70.45
68474;BME280;55461;52.066;5.194;2023-01-28T10:03:24;103158.0;;;3.28;69.91
68474;BME280;55461;52.066;5.194;2023-01-28T10:05:16;103163.00000000001;;;3.39;69.55
68474;BME280;55461;52.066;5.194;2023-01-28T10:07:13;103170.0;;;3.34;69.45
68474;BME280;55461;52.066;5.194;2023-01-28T10:09:17;103176.0;;;3.38;70.09
68474;BME280;55461;52.066;5.194;2023-01-28T10:11:15;103178.0;;;3.42;68.98
68474;BME280;55461;52.066;5.194;2023-01-28T10:13:03;103170.0;;;3.35;69.91
68474;BME280;55461;52.066;5.194;2023-01-28T10:14:56;103173.0;;;3.42;70.22
68474;BME280;55461;52.066;5.194;2023-01-28T10:16:43;103179.0;;;3.54;70.02
68474;BME280;55461;52.066;5.194;2023-01-28T10:20:16;103175.0;;;3.51;69.13
68474;BME280;55461;52.066;5.194;2023-01-28T10:22:00;103172.0;;;3.57;69.19
68474;BME280;55461;52.066;5.194;2023-01-28T10:23:45;103168.0;;;3.64;69.83
68474;BME280;55461;52.066;5.194;2023-01-28T10:25:31;103167.0;;;3.5;68.33
68474;BME280;55461;52.066;5.194;2023-01-28T10:27:11;103163.00000000001;;;3.55;69.45
68474;BME280;55461;52.066;5.194;2023-01-28T10:30:34;103157.0;;;3.65;69.86
68474;BME280;55461;52.066;5.194;2023-01-28T10:32:26;103155.0;;;3.72;68.61
68474;BME280;55461;52.066;5.194;2023-01-28T10:34:04;103150.0;;;3.78;67.83
68474;BME280;55461;52.066;5.194;2023-01-28T10:35:42;103150.0;;;3.87;67.09
68474;BME280;55461;52.066;5.194;2023-01-28T10:38:55;103153.0;;;3.65;66.3
68474;BME280;55461;52.066;5.194;2023-01-28T10:40:32;103152.0;;;3.75;67.09
68474;BME280;55461;52.066;5.194;2023-01-28T10:42:16;103149.0;;;3.9;67.08
68474;BME280;55461;52.066;5.194;2023-01-28T10:44:02;103151.0;;;4.0;66.8
68474;BME280;55461;52.066;5.194;2023-01-28T10:47:32;103144.0;;;4.04;66.44
68474;BME280;55461;52.066;5.194;2023-01-28T10:49:16;103145.0;;;4.07;66.41
68474;BME280;55461;52.066;5.194;2023-01-28T10:50:55;103145.0;;;4.17;66.44
68474;BME280;55461;52.066;5.194;2023-01-28T10:52:32;103139.00000000001;;;4.26;65.63
68474;BME280;55461;52.066;5.194;2023-01-28T10:56:05;103136.99999999999;;;4.3;65.75
68474;BME280;55461;52.066;5.194;2023-01-28T10:57:43;103130.0;;;4.16;64.83
68474;BME280;55461;52.066;5.194;2023-01-28T10:59:24;103129.0;;;4.17;65.37
68474;BME280;55461;52.066;5.194;2023-01-28T11:01:05;103124.0;;;4.21;65.3
68474;BME280;55461;52.066;5.194;2023-01-28T11:02:42;103125.0;;;4.14;64.73
68474;BME280;55461;52.066;5.194;2023-01-28T11:06:00;103117.0;;;4.17;64.47
68474;BME280;55461;52.066;5.194;2023-01-28T11:07:37;103104.0;;;4.29;64.83
68474;BME280;55461;52.066;5.194;2023-01-28T11:09:22;103098.0;;;4.25;64.95
68474;BME280;55461;52.066;5.194;2023-01-28T11:11:00;103086.99999999999;;;4.32;64.31
68474;BME280;55461;52.066;5.194;2023-01-28T11:14:19;103081.0;;;4.3;66.16
68474;BME280;55461;52.066;5.194;2023-01-28T11:16:00;103074.0;;;4.53;65.83
68474;BME280;55461;52.066;5.194;2023-01-28T11:17:47;103074.0;;;4.49;64.48
68474;BME280;55461;52.066;5.194;2023-01-28T11:19:34;103077.0;;;4.53;65.16
68474;BME280;55461;52.066;5.194;2023-01-28T11:22:55;103067.0;;;4.58;65.37
68474;BME280;55461;52.066;5.194;2023-01-28T11:24:33;103057.0;;;4.66;65.38
68474;BME280;55461;52.066;5.194;2023-01-28T11:26:15;103052.0;;;4.62;63.75
68474;BME280;55461;52.066;5.194;2023-01-28T11:27:53;103048.0;;;4.74;62.7